Time;durP1;ratioP1;P1;durP2;ratioP2;P2;SDS_P1;SDS_P2;PMS_P1;PMS_P2;Temp;Humidity;BMP_temperature;BMP_pressure;BME280_temperature;BME280_humidity;BME280_pressure;Samples;Min_cycle;Max_cycle;Signal;HPM_P1;HPM_P2
2022/05/09 00:01:06;;;;;;;9.50;8.50;;;13.30;86.50;;;11.99;78.54;98708.66;5088238;28;20452;-71
2022/05/09 00:03:34;;;;;;;10.40;9.47;;;13.30;86.00;;;12.22;78.95;98748.09;5070226;28;20447;-70
2022/05/09 00:06:02;;;;;;;10.90;10.10;;;13.30;86.40;;;12.17;79.37;98749.53;5069826;28;20554;-73
2022/05/09 00:08:29;;;;;;;9.93;9.13;;;13.30;86.90;;;12.25;78.41;98743.06;5070543;28;20454;-70
2022/05/09 00:10:56;;;;;;;9.53;8.73;;;13.30;86.60;;;12.30;78.47;98739.75;5070289;28;20558;-72
2022/05/09 00:13:23;;;;;;;10.00;9.20;;;13.30;86.30;;;12.38;78.08;98747.66;5071726;28;20585;-68
2022/05/09 00:15:50;;;;;;;10.27;9.37;;;13.40;86.30;;;12.40;78.08;98745.56;5068971;28;20520;-70
2022/05/09 00:18:19;;;;;;;9.63;8.93;;;13.40;86.00;;;12.08;78.43;98699.34;5069786;28;20452;-69
2022/05/09 00:20:48;;;;;;;9.13;8.43;;;13.40;86.10;;;12.41;78.19;98738.25;5074042;28;20459;-70
2022/05/09 00:23:15;;;;;;;9.90;9.20;;;13.40;85.70;;;12.33;78.24;98747.44;5075216;28;20461;-69
2022/05/09 00:25:42;;;;;;;10.30;9.50;;;13.40;85.80;;;12.31;78.98;98749.53;5077185;28;20520;-69
2022/05/09 00:28:10;;;;;;;10.13;9.33;;;13.40;86.30;;;12.32;78.55;98748.50;5080894;28;20452;-66
2022/05/09 00:30:38;;;;;;;10.03;9.20;;;13.40;86.20;;;12.23;78.07;98720.78;5076583;28;22558;-67
2022/05/09 00:33:06;;;;;;;9.53;8.70;;;13.40;85.60;;;12.56;76.87;98755.13;5078453;28;20461;-69
2022/05/09 00:35:33;;;;;;;10.30;9.30;;;13.50;85.00;;;12.60;76.30;98739.28;5068406;28;20595;-72
2022/05/09 00:38:01;;;;;;;13.23;10.50;;;13.60;84.50;;;12.44;77.07;98735.16;5072939;28;20461;-67
2022/05/09 00:40:29;;;;;;;11.70;10.70;;;13.60;85.00;;;12.37;77.85;98756.84;5073037;28;20464;-68
2022/05/09 00:42:56;;;;;;;13.10;12.00;;;13.40;85.10;;;12.45;77.71;98748.47;5072186;28;21050;-68
2022/05/09 00:45:26;;;;;;;15.30;14.00;;;13.40;85.50;;;12.11;78.90;98749.53;5071769;28;20468;-67
2022/05/09 00:47:53;;;;;;;13.60;12.50;;;13.30;86.00;;;12.03;79.47;98753.28;5077878;28;20454;-69
2022/05/09 00:50:28;;;;;;;14.77;13.47;;;13.10;86.80;;;12.13;79.48;98756.41;5074418;28;20480;-68
2022/05/09 00:53:02;;;;;;;13.97;12.37;;;13.20;87.60;;;12.08;79.99;98758.91;5076925;28;20458;-73
2022/05/09 00:55:36;;;;;;;14.87;13.60;;;13.10;87.90;;;11.96;80.14;98755.13;5073667;28;20919;-68
2022/05/09 00:58:10;;;;;;;12.40;11.40;;;13.00;87.50;;;11.77;80.46;98750.28;5077448;28;20451;-73
2022/05/09 01:00:37;;;;;;;12.17;11.03;;;12.90;88.50;;;11.71;81.20;98742.16;5073011;28;20460;-68
2022/05/09 01:03:10;;;;;;;12.63;11.40;;;12.80;88.70;;;11.70;81.34;98752.16;5092406;27;20493;-68
2022/05/09 01:05:38;;;;;;;13.23;11.83;;;12.70;89.40;;;11.79;80.88;98744.69;5071387;28;20438;-68
2022/05/09 01:08:06;;;;;;;11.00;10.10;;;12.70;89.20;;;11.71;81.22;98750.28;5070573;28;20447;-68
2022/05/09 01:10:38;;;;;;;10.80;9.90;;;12.70;89.60;;;11.73;81.24;98737.38;5070341;28;20446;-72
2022/05/09 01:13:10;;;;;;;11.80;10.70;;;12.70;90.00;;;11.58;81.76;98742.97;5073950;28;20543;-68
2022/05/09 01:15:37;;;;;;;12.37;11.30;;;12.60;90.20;;;11.44;82.21;98747.50;5081266;28;20564;-72
2022/05/09 01:18:09;;;;;;;12.50;11.33;;;12.50;90.50;;;11.30;83.12;98742.06;5077053;28;20446;-69
2022/05/09 01:20:37;;;;;;;11.80;10.80;;;12.40;90.70;;;11.11;84.22;98748.19;5072162;28;20498;-68
2022/05/09 01:23:07;;;;;;;11.77;10.87;;;12.20;91.20;;;11.07;84.56;98741.53;5079325;28;20457;-69
2022/05/09 01:25:34;;;;;;;12.40;11.40;;;12.10;91.80;;;10.99;85.63;98745.25;5080278;28;20460;-76
2022/05/09 01:28:02;;;;;;;11.80;10.80;;;12.10;92.20;;;10.99;84.86;98739.84;5083353;28;20968;-71
2022/05/09 01:30:40;;;;;;;11.70;10.80;;;12.00;92.30;;;11.00;85.35;98742.34;5083601;28;20800;-68
2022/05/09 01:33:14;;;;;;;11.57;10.57;;;12.00;92.80;;;10.85;85.56;98738.94;5081596;28;22348;-69
2022/05/09 01:35:49;;;;;;;12.60;11.47;;;12.00;92.50;;;10.75;86.57;98750.94;5072161;28;20485;-71
2022/05/09 01:38:26;;;;;;;12.40;11.50;;;11.90;93.50;;;10.79;86.82;98750.53;5068961;28;20450;-67
2022/05/09 01:40:53;;;;;;;13.37;12.23;;;11.80;94.00;;;10.68;87.40;98750.03;5091909;28;20516;-71
2022/05/09 01:43:34;;;;;;;13.53;12.23;;;11.80;94.10;;;10.66;86.77;98748.59;5073767;28;20442;-67
2022/05/09 01:46:03;;;;;;;11.37;10.43;;;11.70;94.50;;;10.58;87.82;98749.59;5079081;28;20449;-70
2022/05/09 01:51:15;;;;;;;13.57;12.37;;;11.60;95.00;;;10.56;88.05;98740.84;5090764;28;20496;-68
2022/05/09 01:53:49;;;;;;;12.20;11.10;;;11.60;96.10;;;10.51;88.28;98745.97;5076882;28;20466;-69
2022/05/09 01:56:17;;;;;;;12.53;11.50;;;11.50;95.30;;;10.40;87.74;98741.94;5076430;28;20475;-68
2022/05/09 01:58:44;;;;;;;12.40;11.40;;;11.40;95.70;;;9.99;89.59;98697.59;5073943;28;20556;-75
2022/05/09 02:01:12;;;;;;;12.67;11.67;;;11.30;96.80;;;10.17;89.65;98743.84;5073249;28;20459;-68
2022/05/09 02:03:39;;;;;;;12.67;11.57;;;11.30;97.70;;;10.26;88.88;98749.09;5071716;28;20459;-69
2022/05/09 02:06:08;;;;;;;16.10;12.30;;;11.30;98.10;;;10.25;90.28;98752.84;5073328;28;20453;-73
2022/05/09 02:08:37;;;;;;;13.60;12.30;;;11.30;98.40;;;9.89;89.68;98709.53;5068098;28;20523;-71
2022/05/09 02:11:06;;;;;;;13.00;11.80;;;11.20;98.50;;;10.23;89.00;98753.03;5070599;28;20953;-68
2022/05/09 02:13:34;;;;;;;13.80;12.77;;;11.20;97.80;;;9.95;89.02;98702.53;5074338;28;20456;-68
2022/05/09 02:16:01;;;;;;;14.30;13.10;;;11.30;97.60;;;10.13;89.18;98753.38;5078506;28;20480;-70
2022/05/09 02:18:29;;;;;;;12.87;11.80;;;11.20;97.20;;;10.12;90.44;98751.69;5079806;28;20543;-71
2022/05/09 02:20:56;;;;;;;14.10;13.00;;;11.20;97.90;;;9.97;91.76;98754.47;5071337;28;20463;-68
2022/05/09 02:23:23;;;;;;;15.20;13.90;;;11.10;99.20;;;9.80;92.38;98753.03;5072489;28;20453;-73
2022/05/09 02:25:51;;;;;;;14.77;13.27;;;10.90;99.90;;;9.82;92.96;98757.22;5089288;28;21044;-68
2022/05/09 02:28:21;;;;;;;15.40;14.10;;;10.90;99.90;;;9.68;93.53;98748.16;5079565;28;20467;-68
2022/05/09 02:30:48;;;;;;;14.53;13.13;;;10.80;99.90;;;9.71;93.66;98761.28;5071781;28;20503;-70
2022/05/09 02:33:16;;;;;;;17.00;15.50;;;10.80;99.90;;;9.69;94.95;98755.22;5076761;28;20441;-70
2022/05/09 02:35:44;;;;;;;16.53;15.13;;;10.80;99.90;;;9.64;94.36;98754.97;5072009;28;20468;-67
2022/05/09 02:38:12;;;;;;;15.90;14.30;;;10.80;99.90;;;9.61;95.35;98761.56;5073098;28;20456;-67
2022/05/09 02:40:41;;;;;;;16.40;14.80;;;10.70;99.90;;;9.30;94.51;98711.44;5071449;28;20965;-68
2022/05/09 02:43:08;;;;;;;15.93;14.53;;;10.70;99.90;;;9.59;94.21;98755.53;5075709;28;21290;-69
2022/05/09 02:45:38;;;;;;;15.43;14.13;;;10.70;99.90;;;9.47;95.25;98738.16;5071251;28;20497;-67
2022/05/09 02:48:07;;;;;;;16.80;14.90;;;10.60;99.90;;;9.47;95.65;98757.06;5090038;27;20447;-67
2022/05/09 02:50:35;;;;;;;15.87;14.50;;;10.60;99.90;;;9.46;96.45;98760.78;5078036;28;20526;-69
2022/05/09 02:53:03;;;;;;;15.87;14.60;;;10.50;99.90;;;9.58;95.76;98759.25;5078278;28;20440;-70
2022/05/09 02:55:31;;;;;;;17.30;15.50;;;10.50;99.90;;;9.41;96.65;98761.38;5071763;28;20492;-69
2022/05/09 02:58:00;;;;;;;18.13;15.93;;;10.50;99.90;;;9.30;96.52;98764.53;5079503;28;20508;-67
2022/05/09 03:00:30;;;;;;;14.80;13.60;;;10.40;99.90;;;9.41;96.35;98760.53;5076524;28;20467;-68
2022/05/09 03:05:59;;;;;;;15.97;14.43;;;10.40;99.90;;;9.14;96.97;98749.41;4994588;28;20454;-72
2022/05/09 03:08:26;;;;;;;16.90;15.20;;;10.30;99.90;;;9.20;96.77;98754.88;5006901;28;20475;-67
2022/05/09 03:10:54;;;;;;;18.10;16.20;;;10.30;99.90;;;9.38;95.43;98755.50;5049394;28;20486;-69
2022/05/09 03:13:20;;;;;;;16.93;15.13;;;10.40;99.90;;;9.23;96.75;98758.22;5080097;28;20526;-68
2022/05/09 03:15:49;;;;;;;16.70;15.20;;;10.40;99.90;;;9.22;96.88;98762.78;5073264;28;20495;-68
2022/05/09 03:18:23;;;;;;;15.97;14.57;;;10.30;99.90;;;8.89;96.65;98717.38;5066839;28;20506;-70
2022/05/09 03:20:51;;;;;;;19.03;15.30;;;10.30;99.90;;;9.12;97.16;98756.84;5056466;28;20449;-69
2022/05/09 03:23:19;;;;;;;22.57;16.93;;;10.30;99.90;;;8.93;97.88;98724.88;5075467;28;20455;-69
2022/05/09 03:25:47;;;;;;;16.40;15.00;;;10.20;99.90;;;9.12;97.02;98746.06;5084499;28;20837;-69
2022/05/09 03:28:20;;;;;;;16.23;14.80;;;10.20;99.90;;;9.24;96.42;98759.88;5076492;28;20444;-71
2022/05/09 03:30:48;;;;;;;16.60;15.00;;;10.20;99.90;;;9.25;96.66;98766.97;5074342;28;20548;-70
2022/05/09 03:33:15;;;;;;;16.87;15.33;;;10.30;99.90;;;9.10;96.92;98753.50;5075687;28;20485;-66
2022/05/09 03:35:45;;;;;;;17.10;15.50;;;10.20;99.90;;;8.83;97.67;98743.22;5070931;28;20537;-69
2022/05/09 03:38:12;;;;;;;18.47;16.50;;;10.10;99.90;;;8.88;98.80;98750.75;5077466;28;20514;-68
2022/05/09 03:40:39;;;;;;;16.90;15.40;;;10.10;99.90;;;9.02;97.79;98762.53;5061898;28;20461;-72
2022/05/09 03:43:07;;;;;;;17.90;16.07;;;10.10;99.90;;;8.94;98.53;98760.78;5072898;28;20536;-67
2022/05/09 03:45:35;;;;;;;17.20;15.57;;;10.10;99.90;;;8.92;99.22;98770.91;5066476;28;21406;-74
2022/05/09 03:48:03;;;;;;;18.60;16.83;;;10.00;99.90;;;8.89;99.53;98758.63;5072597;28;20455;-71
2022/05/09 03:50:30;;;;;;;22.20;20.10;;;10.00;99.90;;;8.90;99.62;98764.88;5077819;28;21056;-73
2022/05/09 03:52:59;;;;;;;20.43;18.50;;;10.00;99.90;;;8.86;99.57;98760.84;5073363;28;20474;-69
2022/05/09 03:55:27;;;;;;;20.10;18.07;;;10.00;99.90;;;9.08;98.84;98769.88;5071200;28;20696;-71
2022/05/09 03:57:56;;;;;;;19.73;17.87;;;10.10;99.90;;;9.05;98.78;98763.00;5070840;28;20523;-68
2022/05/09 04:00:26;;;;;;;19.10;17.10;;;10.20;99.90;;;9.24;97.62;98770.69;5069268;28;20466;-69
2022/05/09 04:02:54;;;;;;;18.63;16.93;;;10.20;99.90;;;9.20;97.27;98771.06;5073521;28;20461;-69
2022/05/09 04:05:22;;;;;;;20.47;18.33;;;10.30;99.90;;;9.16;97.89;98771.63;5068493;28;20454;-68
2022/05/09 04:07:52;;;;;;;18.50;16.53;;;10.20;99.90;;;9.18;97.93;98766.91;5071233;28;20471;-68
2022/05/09 04:10:24;;;;;;;19.80;18.00;;;10.30;99.90;;;9.21;97.61;98766.53;5069511;28;20902;-71
2022/05/09 04:12:52;;;;;;;19.30;17.50;;;10.30;99.90;;;9.24;97.77;98771.53;5075247;28;20531;-71
2022/05/09 04:18:06;;;;;;;18.40;16.30;;;10.40;99.90;;;9.42;96.83;98768.44;5071272;28;20496;-71
2022/05/09 04:20:33;;;;;;;18.00;16.40;;;10.50;99.90;;;9.53;96.58;98791.38;5068397;28;20483;-67
2022/05/09 04:23:01;;;;;;;16.07;14.53;;;10.60;99.90;;;9.46;95.92;98763.47;5074192;28;20461;-68
2022/05/09 04:25:31;;;;;;;19.07;17.20;;;10.70;99.90;;;10.04;94.56;98776.13;5074230;28;20466;-69
2022/05/09 04:28:00;;;;;;;21.40;19.30;;;11.00;99.90;;;10.63;90.83;98779.53;5072551;28;21558;-74
2022/05/09 04:30:27;;;;;;;15.30;14.00;;;11.60;99.70;;;11.21;86.17;98770.31;5074279;28;20444;-68
2022/05/09 04:32:54;;;;;;;15.23;13.80;;;12.30;92.80;;;11.75;82.49;98775.88;5080381;28;20483;-73
2022/05/09 04:35:21;;;;;;;14.83;13.10;;;13.00;89.50;;;12.30;79.24;98773.09;5076935;28;20510;-68
2022/05/09 04:37:52;;;;;;;13.00;11.90;;;13.50;87.10;;;12.74;77.68;98781.59;5076651;28;20461;-71
2022/05/09 04:40:22;;;;;;;12.93;11.70;;;14.10;84.60;;;12.84;74.71;98734.25;5082408;28;20519;-82
2022/05/09 04:42:52;;;;;;;12.73;11.53;;;14.60;82.20;;;13.32;73.57;98788.13;5071036;28;20562;-76
2022/05/09 04:45:19;;;;;;;12.30;11.00;;;14.80;81.50;;;13.62;72.39;98778.63;5078631;28;20474;-74
2022/05/09 04:47:49;;;;;;;12.13;11.03;;;15.00;80.80;;;13.72;71.70;98789.03;5080859;28;20481;-77
2022/05/09 04:50:19;;;;;;;12.80;11.80;;;15.30;80.30;;;13.84;71.17;98781.84;5096754;28;20832;-75
2022/05/09 04:52:46;;;;;;;12.30;10.90;;;15.40;79.70;;;14.01;70.15;98781.34;5078309;28;20451;-74
2022/05/09 04:55:15;;;;;;;11.37;10.27;;;15.70;78.70;;;13.56;71.49;98769.47;5076512;28;22214;-75
2022/05/09 04:57:45;;;;;;;13.07;11.80;;;15.60;78.70;;;14.19;69.76;98777.88;5072127;28;20543;-75
2022/05/09 05:00:20;;;;;;;12.40;11.10;;;15.90;78.30;;;14.73;67.67;98767.41;5080004;28;20506;-75
2022/05/09 05:02:47;;;;;;;14.73;11.00;;;16.40;77.20;;;14.95;67.09;98780.59;5074901;28;20454;-77
2022/05/09 05:05:14;;;;;;;11.33;10.43;;;16.50;76.80;;;15.05;66.79;98784.66;5077658;28;20459;-77
2022/05/09 05:07:42;;;;;;;13.60;11.47;;;16.40;77.10;;;15.09;66.25;98780.41;5073073;28;20543;-76
2022/05/09 05:10:12;;;;;;;11.50;10.50;;;16.60;76.30;;;15.65;63.11;98783.09;5081310;28;20509;-78
2022/05/09 05:12:40;;;;;;;11.93;10.83;;;17.10;74.80;;;15.73;62.78;98780.88;5082771;28;20461;-76
2022/05/09 05:15:09;;;;;;;10.80;9.67;;;17.40;74.10;;;16.35;61.51;98781.69;5072559;28;21029;-78
2022/05/09 05:17:38;;;;;;;11.97;10.93;;;17.70;73.50;;;16.33;61.08;98783.84;5077107;28;21009;-81
2022/05/09 05:20:10;;;;;;;12.50;10.40;;;18.00;72.50;;;16.71;60.29;98782.56;5077751;28;22363;-79
2022/05/09 05:22:38;;;;;;;10.57;9.67;;;18.40;71.90;;;17.12;59.12;98777.22;5074812;28;20452;-79
2022/05/09 05:25:07;;;;;;;11.27;10.27;;;18.70;70.80;;;16.94;59.65;98774.59;5074602;28;20522;-75
2022/05/09 05:27:34;;;;;;;11.13;10.17;;;18.60;70.30;;;16.68;60.77;98782.19;5071014;28;20588;-77
2022/05/09 05:30:01;;;;;;;11.43;10.00;;;18.40;70.70;;;17.65;57.70;98770.91;5077945;28;20550;-74
2022/05/09 05:32:34;;;;;;;10.20;9.40;;;18.90;69.80;;;17.35;57.56;98771.94;5080745;28;20529;-77
2022/05/09 05:35:03;;;;;;;10.13;9.30;;;19.40;67.90;;;17.48;56.99;98771.66;5080417;28;20455;-77
2022/05/09 05:37:32;;;;;;;12.50;9.83;;;19.50;67.30;;;16.80;59.03;98788.47;5075814;28;20560;-77
2022/05/09 05:40:00;;;;;;;10.27;9.27;;;18.90;67.60;;;17.28;57.75;98792.03;5079814;28;20540;-76
2022/05/09 05:42:28;;;;;;;10.63;9.73;;;18.90;67.60;;;17.02;58.08;98785.19;5081872;28;20459;-74
2022/05/09 05:44:57;;;;;;;10.53;9.63;;;18.90;67.50;;;17.79;56.23;98785.94;5085111;28;20452;-78
2022/05/09 05:47:24;;;;;;;9.90;9.10;;;19.30;67.00;;;17.32;57.60;98791.53;5076184;28;21278;-75
2022/05/09 05:49:52;;;;;;;10.50;9.40;;;19.30;66.30;;;17.05;57.92;98786.59;5080790;28;20494;-78
2022/05/09 05:52:20;;;;;;;9.03;8.33;;;19.00;66.50;;;17.52;56.65;98770.13;5080982;28;20456;-74
2022/05/09 05:54:48;;;;;;;9.40;8.53;;;19.40;66.20;;;17.90;55.50;98786.13;5082865;28;20452;-76
2022/05/09 05:57:21;;;;;;;8.53;7.83;;;19.40;65.90;;;17.34;56.89;98795.72;5089582;28;20501;-73
2022/05/09 05:59:51;;;;;;;9.60;8.00;;;19.20;65.70;;;16.70;58.08;98799.19;5088485;28;20543;-74
2022/05/09 06:02:18;;;;;;;9.00;8.20;;;18.80;65.60;;;15.69;61.49;98801.50;5085756;28;20543;-75
2022/05/09 06:04:47;;;;;;;8.23;7.43;;;17.90;66.70;;;15.10;63.19;98812.03;5089314;28;20967;-74
2022/05/09 06:07:15;;;;;;;9.40;8.27;;;17.10;68.50;;;14.47;65.91;98802.94;5091067;28;20972;-80
2022/05/09 06:09:45;;;;;;;10.00;8.63;;;16.00;70.70;;;14.23;68.05;98813.59;5073668;28;20477;-82
2022/05/09 06:12:15;;;;;;;12.20;8.80;;;15.60;73.20;;;14.36;67.57;98805.34;5082327;28;20456;-76
2022/05/09 06:14:42;;;;;;;10.30;8.60;;;15.50;74.40;;;14.41;67.35;98813.66;5082961;28;20459;-73
2022/05/09 06:17:11;;;;;;;8.50;7.80;;;15.60;74.40;;;14.52;66.50;98814.81;5088307;28;20529;-73
2022/05/09 06:19:40;;;;;;;9.50;8.70;;;15.60;74.30;;;14.23;68.23;98813.59;5102962;27;21258;-72
2022/05/09 06:22:07;;;;;;;12.33;9.00;;;15.50;75.10;;;14.40;67.47;98816.59;5086862;28;20526;-73
2022/05/09 06:24:34;;;;;;;9.50;8.43;;;15.50;75.00;;;14.41;68.10;98824.53;5088885;28;20448;-78
2022/05/09 06:27:03;;;;;;;13.17;9.60;;;15.50;75.50;;;14.52;67.84;98824.88;5081298;28;20458;-79
2022/05/09 06:29:30;;;;;;;9.43;8.43;;;15.60;75.80;;;14.41;66.90;98824.53;5082765;28;20527;-79
2022/05/09 06:31:59;;;;;;;8.83;8.00;;;15.50;75.00;;;14.56;66.48;98834.25;5076957;28;20459;-76
2022/05/09 06:34:26;;;;;;;9.23;8.00;;;15.60;74.80;;;14.65;66.55;98826.66;5092388;27;20467;-73
2022/05/09 06:36:53;;;;;;;8.27;7.40;;;15.70;75.00;;;14.64;65.99;98822.28;5071861;28;20549;-74
2022/05/09 06:39:20;;;;;;;7.77;6.97;;;15.80;74.70;;;14.51;65.69;98777.81;5077548;28;20579;-77
2022/05/09 06:41:47;;;;;;;8.17;7.47;;;15.90;74.70;;;14.89;65.62;98825.00;5080571;28;20465;-79
2022/05/09 06:44:16;;;;;;;8.40;7.20;;;16.00;74.50;;;14.92;64.59;98824.53;5086459;28;20467;-76
2022/05/09 06:46:43;;;;;;;7.87;7.10;;;16.00;73.80;;;14.96;64.66;98833.09;5077403;28;20527;-76
2022/05/09 06:49:11;;;;;;;7.40;6.70;;;16.10;73.70;;;14.93;64.34;98842.53;5075257;28;20543;-72
2022/05/09 06:51:38;;;;;;;7.57;5.97;;;16.00;73.10;;;14.99;64.53;98835.38;5087591;28;20531;-73
2022/05/09 06:54:06;;;;;;;8.03;7.10;;;16.10;73.50;;;15.11;63.77;98835.47;5092690;28;20467;-71
2022/05/09 06:56:34;;;;;;;7.37;6.77;;;16.10;73.30;;;15.19;63.86;98834.34;5089842;28;20516;-72
2022/05/09 06:59:01;;;;;;;8.20;7.40;;;16.20;73.20;;;15.42;62.98;98834.50;5089805;28;20459;-71
2022/05/09 07:01:29;;;;;;;7.13;6.50;;;16.40;72.90;;;15.40;63.77;98827.63;5097082;28;20459;-73
2022/05/09 07:03:56;;;;;;;8.00;7.20;;;16.40;73.20;;;15.65;62.77;98830.25;5093032;28;20466;-71
2022/05/09 07:06:23;;;;;;;6.73;6.13;;;16.60;73.10;;;15.80;62.13;98829.84;5098543;28;20460;-71
2022/05/09 07:08:50;;;;;;;6.87;5.70;;;16.80;72.60;;;15.93;61.85;98823.44;5090659;28;20741;-81
2022/05/09 07:11:17;;;;;;;6.80;6.10;;;16.90;72.30;;;15.84;61.69;98816.59;5094200;28;20452;-80
2022/05/09 07:13:45;;;;;;;6.60;6.10;;;16.90;72.00;;;15.67;61.42;98779.09;5091853;28;20459;-81
2022/05/09 07:16:13;;;;;;;7.03;6.33;;;16.90;71.80;;;15.99;61.73;98833.41;5096067;28;21005;-75
2022/05/09 07:18:43;;;;;;;7.60;6.60;;;17.00;72.10;;;16.02;61.59;98818.50;5075913;28;20487;-78
2022/05/09 07:21:10;;;;;;;7.43;6.73;;;17.10;71.80;;;16.27;60.80;98825.66;5070975;28;20462;-77
2022/05/09 07:23:38;;;;;;;6.97;6.30;;;17.20;71.60;;;16.50;59.76;98824.06;5073723;28;20530;-75
2022/05/09 07:26:06;;;;;;;7.00;6.37;;;17.40;71.10;;;16.52;59.76;98827.38;5072349;28;20567;-75
2022/05/09 07:28:33;;;;;;;6.20;5.60;;;17.50;70.80;;;16.51;60.19;98826.53;5075616;28;20948;-75
2022/05/09 07:31:01;;;;;;;6.37;5.87;;;17.50;71.00;;;16.55;59.54;98825.03;5073321;28;20588;-75
2022/05/09 07:33:30;;;;;;;9.00;6.33;;;17.60;70.60;;;16.77;59.98;98823.63;5073220;28;20451;-74
2022/05/09 07:35:58;;;;;;;6.27;5.67;;;17.70;71.30;;;16.73;58.99;98819.69;5069714;28;20529;-76
2022/05/09 07:38:28;;;;;;;6.50;6.00;;;17.80;70.00;;;16.66;59.41;98823.38;5076378;28;20457;-76
2022/05/09 07:40:56;;;;;;;6.13;5.67;;;17.60;70.30;;;16.99;58.33;98821.97;5075708;28;20542;-75
2022/05/09 07:43:25;;;;;;;6.33;5.83;;;17.80;69.90;;;17.01;58.69;98786.25;5072698;28;20565;-76
2022/05/09 07:45:54;;;;;;;6.80;6.17;;;18.10;70.40;;;17.10;58.14;98830.41;5071572;28;20559;-73
2022/05/09 07:48:22;;;;;;;10.90;5.80;;;18.10;69.50;;;17.09;58.00;98824.09;5073447;28;20457;-76
2022/05/09 07:50:50;;;;;;;8.70;6.20;;;18.10;69.50;;;17.14;58.09;98815.22;5077892;28;20448;-74
2022/05/09 07:53:22;;;;;;;5.80;5.20;;;18.10;69.70;;;17.13;58.25;98800.72;5074758;28;20473;-78
2022/05/09 07:55:50;;;;;;;7.50;5.87;;;18.10;69.60;;;17.36;57.72;98818.13;5071086;28;20441;-75
2022/05/09 07:58:17;;;;;;;8.63;5.60;;;18.20;69.10;;;17.52;57.25;98811.09;5074673;28;20571;-72
2022/05/09 08:00:46;;;;;;;6.13;5.63;;;18.40;69.20;;;17.89;56.07;98812.63;5074142;28;20491;-74
2022/05/09 08:03:16;;;;;;;6.30;5.70;;;18.70;68.50;;;18.00;55.96;98816.41;5072191;28;20456;-76
2022/05/09 08:05:43;;;;;;;6.43;5.17;;;18.80;68.40;;;18.14;55.29;98811.47;5075246;28;20539;-77
2022/05/09 08:08:12;;;;;;;6.33;5.77;;;19.00;67.90;;;17.92;55.85;98805.84;5084117;28;21096;-79
2022/05/09 08:10:42;;;;;;;5.83;5.23;;;19.00;67.70;;;17.90;56.36;98817.03;5070463;28;20455;-74
2022/05/09 08:13:12;;;;;;;5.70;5.17;;;18.80;68.20;;;17.83;56.33;98822.66;5068876;28;20453;-73
2022/05/09 08:15:39;;;;;;;5.00;4.60;;;18.80;67.90;;;17.80;56.17;98806.72;5068418;28;20530;-79
2022/05/09 08:18:07;;;;;;;8.53;5.87;;;18.80;67.50;;;17.92;56.43;98811.31;5076975;28;20474;-75
2022/05/09 08:20:35;;;;;;;6.00;5.00;;;18.80;67.90;;;17.89;54.86;98809.06;5075277;28;20525;-76
2022/05/09 08:23:06;;;;;;;6.13;4.57;;;18.80;66.50;;;18.14;55.14;98819.69;5076820;28;20462;-77
2022/05/09 08:25:36;;;;;;;5.60;5.10;;;19.00;67.00;;;18.31;54.79;98816.13;5072066;28;20464;-76
2022/05/09 08:28:07;;;;;;;5.97;5.40;;;19.20;67.00;;;18.20;54.71;98815.97;5076029;28;20551;-73
2022/05/09 08:30:36;;;;;;;5.97;5.33;;;19.20;66.60;;;18.25;54.18;98812.47;5066653;28;20480;-72
2022/05/09 08:33:09;;;;;;;5.63;4.90;;;19.20;66.40;;;18.17;54.38;98805.50;5070659;28;20945;-75
2022/05/09 08:35:38;;;;;;;7.63;5.50;;;19.10;65.90;;;18.23;54.01;98804.53;5067757;28;20440;-76
2022/05/09 08:38:05;;;;;;;5.10;4.60;;;19.20;65.70;;;17.99;53.88;98812.00;5070318;28;20482;-83
2022/05/09 08:40:36;;;;;;;6.17;5.57;;;19.00;65.00;;;18.22;53.61;98807.50;5083272;28;20739;-74
2022/05/09 08:43:15;;;;;;;6.20;4.40;;;19.10;65.40;;;18.54;53.55;98809.69;5076765;28;20559;-72
2022/05/09 08:45:52;;;;;;;5.50;5.10;;;19.30;65.20;;;18.23;52.66;98811.91;5068768;28;20558;-74
2022/05/09 08:48:33;;;;;;;5.80;5.30;;;19.30;64.10;;;18.30;53.11;98819.94;5073842;28;20924;-74
2022/05/09 08:51:14;;;;;;;4.27;3.87;;;19.20;64.50;;;18.63;52.49;98813.69;5072199;28;21002;-74
2022/05/09 08:53:44;;;;;;;5.50;5.00;;;19.40;64.60;;;18.61;52.63;98815.84;5076799;28;20464;-80
2022/05/09 08:56:16;;;;;;;5.80;4.90;;;19.50;64.50;;;18.78;52.02;98809.53;5071170;28;20814;-75
2022/05/09 08:58:51;;;;;;;4.77;4.43;;;19.60;64.00;;;18.81;52.10;98803.56;5076369;28;20457;-76
2022/05/09 09:01:22;;;;;;;5.10;4.60;;;19.70;63.80;;;19.00;51.49;98811.50;5069204;28;20469;-77
2022/05/09 09:04:00;;;;;;;5.97;5.40;;;19.80;63.80;;;19.05;51.96;98808.88;5073812;28;20917;-77
2022/05/09 09:06:48;;;;;;;5.57;5.07;;;19.90;64.20;;;19.30;51.01;98815.75;5077307;28;20563;-77
2022/05/09 09:09:31;;;;;;;6.17;5.13;;;20.10;63.60;;;19.57;49.34;98804.06;5070505;28;20480;-77
2022/05/09 09:12:12;;;;;;;5.10;4.70;;;20.30;62.30;;;19.33;48.81;98815.25;5078278;28;21106;-81
2022/05/09 09:14:54;;;;;;;6.90;4.30;;;20.40;60.70;;;19.29;50.16;98819.59;5070972;28;20458;-75
2022/05/09 09:17:44;;;;;;;5.03;4.57;;;20.20;61.80;;;19.33;49.78;98818.00;5078980;28;20607;-82
2022/05/09 09:20:20;;;;;;;5.20;4.80;;;20.20;61.40;;;19.18;49.43;98818.63;5084089;28;20454;-81
2022/05/09 09:23:05;;;;;;;4.97;4.63;;;20.10;60.90;;;19.16;49.48;98816.13;5083204;28;20452;-78
2022/05/09 09:25:45;;;;;;;6.33;5.50;;;20.00;60.70;;;19.20;48.31;98816.44;5070743;28;20643;-76
2022/05/09 09:28:16;;;;;;;4.80;4.40;;;20.10;59.80;;;19.52;48.96;98813.03;5078543;28;20444;-74
2022/05/09 09:30:46;;;;;;;5.57;4.67;;;20.30;60.90;;;19.70;48.10;98809.16;5073896;28;20953;-78
2022/05/09 09:33:17;;;;;;;5.00;4.27;;;20.50;60.30;;;19.91;47.46;98798.41;5077088;28;20464;-76
2022/05/09 09:35:50;;;;;;;4.80;4.40;;;20.70;60.00;;;19.98;47.24;98806.44;5075435;28;20461;-82
2022/05/09 09:38:32;;;;;;;5.93;5.03;;;20.80;59.50;;;19.83;46.74;98816.13;5075847;28;20466;-74
2022/05/09 09:41:20;;;;;;;4.97;4.47;;;20.80;58.70;;;20.03;46.09;98801.03;5072855;28;21089;-77
2022/05/09 09:43:49;;;;;;;5.10;4.50;;;20.80;58.30;;;20.01;44.43;98773.03;5080805;28;20459;-75
2022/05/09 09:46:18;;;;;;;4.77;4.33;;;21.00;56.80;;;20.31;43.37;98797.19;5080569;28;20457;-75
2022/05/09 09:48:45;;;;;;;5.17;4.77;;;21.10;56.10;;;20.40;43.58;98794.78;5074683;28;21265;-73
2022/05/09 09:51:20;;;;;;;10.47;4.73;;;21.20;56.00;;;20.33;44.39;98789.50;5073749;28;20439;-76
2022/05/09 09:54:02;;;;;;;4.57;4.27;;;21.10;56.70;;;20.75;43.90;98781.59;5079985;28;20458;-73
2022/05/09 09:56:32;;;;;;;5.30;4.80;;;21.50;56.40;;;20.97;43.95;98783.41;5074107;28;20470;-75
2022/05/09 09:59:18;;;;;;;5.10;4.60;;;21.70;56.80;;;20.94;43.24;98782.84;5079543;28;22309;-75
2022/05/09 10:02:04;;;;;;;5.43;4.90;;;21.70;55.70;;;20.91;42.03;98788.88;5077356;28;20821;-75
2022/05/09 10:04:32;;;;;;;4.80;4.40;;;21.80;54.50;;;20.96;40.85;98788.09;5079440;28;20456;-76
2022/05/09 10:07:03;;;;;;;4.27;3.97;;;21.80;53.80;;;20.85;38.97;98778.13;5077654;28;20571;-76
2022/05/09 10:09:37;;;;;;;4.77;4.37;;;21.70;51.90;;;20.84;38.50;98781.97;5069507;28;20542;-76
2022/05/09 10:12:23;;;;;;;5.20;4.70;;;21.70;51.20;;;20.88;39.27;98781.19;5074625;28;20447;-76
2022/05/09 10:14:51;;;;;;;4.50;4.20;;;21.70;51.50;;;20.86;39.24;98780.63;5077995;28;20513;-75
2022/05/09 10:17:29;;;;;;;4.53;3.93;;;21.70;51.40;;;21.03;38.49;98783.19;5075497;28;20468;-77
2022/05/09 10:20:01;;;;;;;3.93;3.60;;;21.80;50.90;;;20.97;38.48;98775.19;5078819;28;20481;-75
2022/05/09 10:25:20;;;;;;;5.93;5.00;;;21.90;50.90;;;21.10;39.33;98774.72;5074672;28;20482;-76
2022/05/09 10:28:07;;;;;;;5.63;4.70;;;21.90;51.70;;;21.04;40.07;98771.09;5077583;28;20452;-77
2022/05/09 10:30:37;;;;;;;6.23;4.70;;;21.90;52.20;;;21.23;39.26;98770.66;5089817;27;20471;-76
2022/05/09 10:33:17;;;;;;;4.27;3.87;;;22.00;51.50;;;21.33;38.18;98756.97;5083075;28;20521;-77
2022/05/09 10:35:51;;;;;;;4.37;4.07;;;22.10;50.90;;;21.49;39.45;98766.09;5075633;28;20548;-77